KSFF

Felts Field Airport

Spokane, Washington, USA
METAR KSFF 231053Z AUTO 03003KT 10SM CLR 13/09 A2982 RMK AO2 SLP084 T01330094
Observed Flight Rules
May-23 @ 10:53 UTC (15 minutes ago) Visual Flight Rules
Wind Visibility Clouds
30° at 3 knots 10 miles
  • Clear skies
Temperatures Readings
Current 13°C / 55°F
Dewpoint 9°C / 48°F
Humidity 77%
Altimeter 29.82" Hg
Pressure 1008.4 hPa
Elevation 609
METAR KSFF 231053Z AUTO 03003KT 10SM CLR 13/09 A2982 RMK AO2 SLP084 T01330094
Observed Flight Rules
May-23 @ 10:53 UTC
(15 minutes ago)
VFR
Wind Visibility
30° at 3 knots 10 miles
Clouds
  • Clear skies
Temperature Dewpoint
13°C / 55°F 9°C / 48°F
Humidity Altimeter Pressure
77% 29.82" Hg 1008.4 hPa